createdAt,value
2017-11-28T00:00:28.601Z,84.87
2017-11-28T00:01:03.922Z,84.68
2017-11-28T00:01:39.337Z,83.92
2017-11-28T00:02:14.761Z,84.59
2017-11-28T00:02:50.048Z,84.49
2017-11-28T00:03:25.799Z,84.11
2017-11-28T00:04:01.005Z,84.87
2017-11-28T00:04:36.621Z,84.97
2017-11-28T00:05:12.212Z,84.97
2017-11-28T00:05:47.627Z,84.21
2017-11-28T00:06:22.817Z,84.59
2017-11-28T00:06:58.129Z,85.35
2017-11-28T00:07:33.333Z,84.68
2017-11-28T00:08:08.535Z,84.49
2017-11-28T00:08:43.723Z,84.68
2017-11-28T00:09:19.137Z,84.68
2017-11-28T00:09:54.693Z,84.87
2017-11-28T00:10:30.309Z,84.49
2017-11-28T00:11:05.697Z,84.40
2017-11-28T00:11:40.620Z,84.40
2017-11-28T00:12:15.913Z,84.21
2017-11-28T00:12:51.036Z,83.16
2017-11-28T00:13:26.223Z,83.45
2017-11-28T00:14:01.683Z,83.64
2017-11-28T00:14:36.870Z,83.54
2017-11-28T00:15:12.286Z,83.36
2017-11-28T00:15:47.787Z,83.45
2017-11-28T00:16:23.006Z,84.01
2017-11-28T00:16:57.991Z,82.88
2017-11-28T00:17:33.430Z,83.16
2017-11-28T00:18:08.786Z,84.21
2017-11-28T00:18:44.020Z,84.11
2017-11-28T00:19:19.329Z,84.30
2017-11-28T00:19:54.787Z,84.30
2017-11-28T00:20:30.173Z,83.92
2017-11-28T00:21:05.582Z,84.01
2017-11-28T00:21:41.166Z,83.64
2017-11-28T00:22:16.578Z,83.36
2017-11-28T00:22:52.279Z,83.26
2017-11-28T00:23:27.599Z,83.16
2017-11-28T00:24:03.010Z,83.26
2017-11-28T00:24:38.458Z,83.92
2017-11-28T00:25:13.840Z,82.88
2017-11-28T00:25:49.153Z,83.36
2017-11-28T00:26:24.332Z,83.07
2017-11-28T00:26:59.752Z,83.07
2017-11-28T00:27:35.033Z,83.26
2017-11-28T00:28:10.455Z,83.16
2017-11-28T00:28:45.741Z,82.88
2017-11-28T00:29:20.881Z,82.97
2017-11-28T00:29:56.371Z,83.36
2017-11-28T00:30:31.718Z,82.97
2017-11-28T00:31:06.769Z,83.26
2017-11-28T00:31:42.373Z,82.88
2017-11-28T00:32:17.663Z,83.45
2017-11-28T00:32:53.287Z,83.16
2017-11-28T00:33:28.878Z,82.88
2017-11-28T00:34:04.095Z,83.07
2017-11-28T00:34:39.608Z,82.78
2017-11-28T00:35:15.226Z,82.97
2017-11-28T00:35:50.345Z,83.92
2017-11-28T00:36:25.557Z,83.36
2017-11-28T00:37:00.874Z,83.45
2017-11-28T00:37:36.187Z,83.36
2017-11-28T00:38:11.374Z,83.83
2017-11-28T00:38:46.789Z,83.54
2017-11-28T00:39:22.200Z,83.07
2017-11-28T00:39:57.620Z,83.36
2017-11-28T00:40:32.781Z,83.16
2017-11-28T00:41:08.128Z,83.16
2017-11-28T00:41:43.734Z,82.88
2017-11-28T00:42:19.247Z,83.16
2017-11-28T00:42:54.828Z,83.36
2017-11-28T00:43:29.852Z,83.92
2017-11-28T00:44:05.743Z,83.36
2017-11-28T00:44:41.389Z,83.26
2017-11-28T00:45:16.782Z,83.36
2017-11-28T00:45:52.398Z,83.07
2017-11-28T00:46:27.785Z,84.01
2017-11-28T00:47:03.226Z,83.26
2017-11-28T00:47:38.414Z,83.26
2017-11-28T00:48:13.627Z,83.92
2017-11-28T00:48:48.710Z,84.21
2017-11-28T00:49:24.175Z,83.26
2017-11-28T00:49:59.855Z,83.26
2017-11-28T00:50:34.977Z,83.36
2017-11-28T00:51:10.365Z,83.45
2017-11-28T00:51:45.584Z,82.78
2017-11-28T00:52:21.296Z,83.16
2017-11-28T00:52:56.714Z,83.45
2017-11-28T00:53:32.205Z,83.36
2017-11-28T00:54:07.419Z,82.97
2017-11-28T00:54:42.537Z,83.36
2017-11-28T00:55:18.157Z,83.45
2017-11-28T00:55:53.371Z,83.07
2017-11-28T00:56:28.904Z,82.97
2017-11-28T00:57:03.984Z,83.45
2017-11-28T00:57:39.312Z,83.54
2017-11-28T00:58:14.495Z,83.54
2017-11-28T00:58:50.313Z,84.21
2017-11-28T00:59:25.615Z,83.92
2017-11-28T01:00:01.070Z,84.01
2017-11-28T01:00:37.155Z,83.36
2017-11-28T01:01:12.665Z,83.36
2017-11-28T01:01:47.863Z,83.92
2017-11-28T01:02:23.181Z,84.68
2017-11-28T01:02:58.571Z,84.87
2017-11-28T01:03:34.294Z,84.87
2017-11-28T01:04:09.589Z,84.97
2017-11-28T01:04:48.230Z,83.78
2017-11-28T01:05:23.522Z,84.11
2017-11-28T01:05:58.949Z,83.73
2017-11-28T01:06:34.336Z,83.73
2017-11-28T01:07:09.665Z,84.21
2017-11-28T01:07:45.245Z,84.87
2017-11-28T01:08:20.666Z,84.68
2017-11-28T01:08:55.953Z,84.78
2017-11-28T01:09:31.594Z,84.68
2017-11-28T01:10:06.817Z,84.78
2017-11-28T01:10:42.235Z,84.45
2017-11-28T01:11:17.626Z,84.64
2017-11-28T01:11:52.965Z,84.83
2017-11-28T01:12:28.237Z,84.49
2017-11-28T01:13:03.653Z,84.83
2017-11-28T01:13:39.050Z,84.55
2017-11-28T01:14:14.301Z,84.55
2017-11-28T01:14:49.920Z,84.83
2017-11-28T01:15:25.569Z,84.74
2017-11-28T01:16:01.133Z,84.74
2017-11-28T01:16:36.834Z,84.21
2017-11-28T01:17:12.976Z,84.55
2017-11-28T01:17:47.997Z,84.07
2017-11-28T01:18:23.090Z,84.26
2017-11-28T01:18:58.402Z,84.17
2017-11-28T01:19:33.811Z,83.97
2017-11-28T01:20:09.169Z,84.07
2017-11-28T01:20:44.342Z,84.26
2017-11-28T01:21:19.370Z,84.64
2017-11-28T01:21:54.463Z,84.36
2017-11-28T01:22:29.596Z,84.55
2017-11-28T01:23:04.886Z,83.88
2017-11-28T01:23:40.531Z,83.50
2017-11-28T01:24:16.011Z,83.88
2017-11-28T01:24:51.160Z,84.26
2017-11-28T01:25:26.245Z,83.50
2017-11-28T01:26:01.366Z,83.88
2017-11-28T01:26:36.754Z,83.78
2017-11-28T01:27:11.983Z,84.45
2017-11-28T01:27:47.574Z,83.88
2017-11-28T01:28:22.687Z,83.97
2017-11-28T01:28:58.084Z,83.88
2017-11-28T01:29:33.298Z,83.88
2017-11-28T01:30:08.808Z,84.17
2017-11-28T01:30:44.541Z,83.88
2017-11-28T01:31:19.936Z,83.88
2017-11-28T01:31:55.449Z,83.78
2017-11-28T01:32:30.648Z,83.69
2017-11-28T01:33:05.843Z,83.88
2017-11-28T01:33:41.137Z,84.74
2017-11-28T01:34:16.445Z,87.11
2017-11-28T01:34:52.090Z,86.63
2017-11-28T01:35:27.305Z,87.68
2017-11-28T01:36:02.502Z,87.58
2017-11-28T01:36:37.812Z,88.91
2017-11-28T01:37:13.198Z,88.62
2017-11-28T01:37:48.821Z,88.53
2017-11-28T01:38:23.809Z,88.53
2017-11-28T01:38:59.026Z,88.24
2017-11-28T01:39:34.016Z,88.62
2017-11-28T01:40:09.769Z,88.91
2017-11-28T01:40:45.142Z,88.62
2017-11-28T01:41:20.259Z,88.72
2017-11-28T01:41:55.654Z,88.53
2017-11-28T01:42:31.168Z,88.53
2017-11-28T01:43:06.448Z,88.06
2017-11-28T01:43:42.056Z,87.87
2017-11-28T01:44:17.044Z,87.39
2017-11-28T01:44:52.354Z,87.01
2017-11-28T01:45:27.561Z,87.58
2017-11-28T01:46:03.210Z,86.82
2017-11-28T01:46:38.794Z,87.87
2017-11-28T01:47:14.116Z,87.11
2017-11-28T01:47:49.203Z,87.77
2017-11-28T01:48:24.322Z,88.43
2017-11-28T01:48:59.612Z,89.10
2017-11-28T01:49:34.943Z,88.15
2017-11-28T01:50:10.582Z,88.43
2017-11-28T01:50:46.196Z,88.15
2017-11-28T01:51:21.485Z,87.87
2017-11-28T01:51:57.283Z,88.15
2017-11-28T01:52:32.369Z,88.53
2017-11-28T01:53:07.986Z,88.72
2017-11-28T01:53:43.368Z,87.87
2017-11-28T01:54:18.597Z,87.87
2017-11-28T01:54:53.889Z,88.06
2017-11-28T01:55:29.531Z,88.06
2017-11-28T01:56:04.913Z,87.58
2017-11-28T01:56:40.535Z,88.15
2017-11-28T01:57:15.834Z,87.58
2017-11-28T01:57:50.956Z,88.06
2017-11-28T01:58:26.174Z,87.68
2017-11-28T01:59:01.596Z,87.30
2017-11-28T01:59:36.882Z,87.87
2017-11-28T02:00:12.634Z,87.58
2017-11-28T02:00:48.124Z,86.91
2017-11-28T02:01:23.549Z,87.01
2017-11-28T02:01:58.934Z,87.01
2017-11-28T02:02:34.357Z,87.68
2017-11-28T02:03:09.554Z,87.68
2017-11-28T02:03:44.968Z,87.20
2017-11-28T02:04:20.251Z,86.82
2017-11-28T02:04:55.583Z,87.87
2017-11-28T02:05:30.899Z,86.63
2017-11-28T02:06:06.543Z,86.82
2017-11-28T02:06:41.727Z,87.01
2017-11-28T02:07:16.744Z,87.20
2017-11-28T02:07:52.238Z,87.30
2017-11-28T02:08:27.385Z,86.82
2017-11-28T02:09:02.465Z,87.11
2017-11-28T02:09:37.578Z,87.01
2017-11-28T02:10:12.680Z,87.11
2017-11-28T02:10:47.840Z,86.91
2017-11-28T02:11:23.337Z,87.30
2017-11-28T02:11:58.969Z,87.20
2017-11-28T02:12:34.473Z,86.82
2017-11-28T02:13:09.838Z,87.77
2017-11-28T02:13:45.533Z,87.49
2017-11-28T02:14:20.767Z,87.49
2017-11-28T02:14:55.865Z,87.20
2017-11-28T02:15:31.317Z,87.87
2017-11-28T02:16:06.523Z,87.49
2017-11-28T02:16:41.947Z,87.20
2017-11-28T02:17:17.544Z,87.20
2017-11-28T02:17:53.072Z,86.82
2017-11-28T02:18:28.369Z,87.49
2017-11-28T02:19:03.593Z,87.30
2017-11-28T02:19:38.793Z,86.91
2017-11-28T02:20:14.572Z,87.11
2017-11-28T02:20:50.105Z,87.20
2017-11-28T02:21:25.737Z,87.01
2017-11-28T02:22:01.482Z,87.01
2017-11-28T02:22:37.213Z,86.91
2017-11-28T02:23:12.840Z,87.58
2017-11-28T02:23:48.167Z,87.30
2017-11-28T02:24:23.769Z,87.11
2017-11-28T02:24:59.098Z,87.01
2017-11-28T02:25:34.530Z,87.01
2017-11-28T02:26:09.869Z,86.82
2017-11-28T02:26:45.288Z,87.49
2017-11-28T02:27:21.017Z,87.87
2017-11-28T02:27:56.514Z,87.01
2017-11-28T02:28:31.845Z,86.91
2017-11-28T02:29:07.143Z,87.01
2017-11-28T02:29:42.579Z,86.91
2017-11-28T02:30:17.785Z,87.01
2017-11-28T02:30:53.582Z,87.11
2017-11-28T02:31:28.883Z,87.11
2017-11-28T02:32:04.119Z,88.06
2017-11-28T02:32:39.317Z,87.68
2017-11-28T02:33:14.652Z,87.87
2017-11-28T02:33:50.159Z,87.49
2017-11-28T02:34:25.548Z,87.87
2017-11-28T02:35:01.272Z,87.49
2017-11-28T02:35:36.727Z,86.91
2017-11-28T02:36:12.028Z,87.11
2017-11-28T02:36:47.355Z,86.91
2017-11-28T02:37:22.656Z,87.11
2017-11-28T02:37:58.187Z,87.20
2017-11-28T02:38:33.687Z,87.49
2017-11-28T02:39:09.017Z,87.30
2017-11-28T02:39:44.117Z,87.11
2017-11-28T02:40:19.549Z,87.30
2017-11-28T02:40:54.895Z,87.49
2017-11-28T02:41:30.323Z,87.58
2017-11-28T02:42:05.724Z,87.96
2017-11-28T02:42:41.165Z,87.20
2017-11-28T02:43:16.561Z,87.96
2017-11-28T02:43:52.192Z,87.96
2017-11-28T02:44:27.702Z,87.49
2017-11-28T02:45:03.341Z,87.58
2017-11-28T02:45:38.549Z,87.96
2017-11-28T02:46:14.017Z,87.68
2017-11-28T02:46:49.320Z,87.58
2017-11-28T02:47:24.849Z,87.49
2017-11-28T02:48:00.153Z,87.87
2017-11-28T02:48:35.282Z,87.20
2017-11-28T02:49:10.592Z,87.96
2017-11-28T02:49:45.815Z,87.77
2017-11-28T02:50:21.323Z,88.34
2017-11-28T02:50:56.670Z,87.49
2017-11-28T02:51:31.877Z,87.87
2017-11-28T02:52:07.099Z,87.58
2017-11-28T02:52:43.292Z,87.49
2017-11-28T02:53:18.522Z,87.87
2017-11-28T02:53:54.024Z,87.68
2017-11-28T02:54:29.465Z,87.39
2017-11-28T02:55:04.761Z,87.68
2017-11-28T02:55:40.089Z,87.49
2017-11-28T02:56:15.315Z,87.30
2017-11-28T02:56:50.641Z,87.87
2017-11-28T02:57:26.041Z,87.68
2017-11-28T02:58:01.694Z,87.77
2017-11-28T02:58:37.097Z,87.77
2017-11-28T02:59:12.621Z,87.68
2017-11-28T02:59:47.927Z,87.87
2017-11-28T03:00:23.254Z,87.87
2017-11-28T03:00:58.881Z,87.68
2017-11-28T03:01:34.121Z,88.72
2017-11-28T03:02:09.548Z,88.06
2017-11-28T03:02:44.681Z,88.53
2017-11-28T03:03:19.879Z,87.87
2017-11-28T03:03:55.213Z,88.24
2017-11-28T03:04:30.513Z,88.72
2017-11-28T03:05:05.738Z,88.06
2017-11-28T03:05:41.137Z,88.43
2017-11-28T03:06:16.593Z,88.72
2017-11-28T03:06:52.005Z,88.53
2017-11-28T03:07:27.538Z,88.81
2017-11-28T03:08:02.733Z,88.24
2017-11-28T03:08:38.144Z,88.53
2017-11-28T03:09:13.850Z,87.77
2017-11-28T03:09:49.408Z,88.24
2017-11-28T03:10:24.506Z,88.43
2017-11-28T03:10:59.686Z,87.77
2017-11-28T03:11:34.693Z,88.24
2017-11-28T03:12:10.515Z,87.87
2017-11-28T03:12:45.821Z,88.24
2017-11-28T03:13:20.943Z,88.43
2017-11-28T03:13:56.142Z,88.24
2017-11-28T03:14:31.669Z,88.24
2017-11-28T03:15:06.784Z,88.34
2017-11-28T03:15:42.110Z,88.43
2017-11-28T03:16:17.250Z,88.43
2017-11-28T03:16:52.593Z,88.24
2017-11-28T03:17:28.391Z,88.43
2017-11-28T03:18:03.724Z,88.43
2017-11-28T03:18:39.021Z,88.81
2017-11-28T03:19:14.546Z,88.43
2017-11-28T03:19:50.045Z,88.34
2017-11-28T03:20:25.777Z,88.43
2017-11-28T03:21:01.076Z,88.62
2017-11-28T03:21:36.333Z,88.43
2017-11-28T03:22:11.535Z,88.06
2017-11-28T03:22:46.859Z,88.53
2017-11-28T03:23:22.585Z,88.34
2017-11-28T03:23:58.321Z,88.62
2017-11-28T03:24:33.831Z,88.43
2017-11-28T03:25:09.058Z,88.43
2017-11-28T03:25:44.555Z,88.81
2017-11-28T03:26:19.920Z,88.43
2017-11-28T03:26:55.418Z,88.24
2017-11-28T03:27:30.951Z,88.53
2017-11-28T03:28:06.452Z,88.72
2017-11-28T03:28:41.788Z,88.62
2017-11-28T03:29:16.983Z,88.72
2017-11-28T03:29:52.332Z,88.34
2017-11-28T03:30:27.538Z,88.53
2017-11-28T03:31:02.913Z,89.20
2017-11-28T03:31:38.148Z,88.91
2017-11-28T03:32:13.768Z,89.00
2017-11-28T03:32:48.867Z,89.00
2017-11-28T03:33:24.303Z,88.91
2017-11-28T03:33:59.786Z,88.62
2017-11-28T03:34:35.007Z,88.72
2017-11-28T03:35:10.923Z,88.53
2017-11-28T03:35:46.445Z,88.72
2017-11-28T03:36:21.866Z,88.53
2017-11-28T03:36:56.887Z,88.72
2017-11-28T03:37:32.477Z,88.43
2017-11-28T03:38:07.700Z,88.53
2017-11-28T03:38:42.901Z,89.48
2017-11-28T03:39:18.324Z,88.34
2017-11-28T03:39:53.721Z,89.10
2017-11-28T03:40:28.851Z,88.43
2017-11-28T03:41:04.242Z,88.72
2017-11-28T03:41:39.387Z,88.34
2017-11-28T03:42:14.675Z,88.43
2017-11-28T03:42:50.300Z,88.62
2017-11-28T03:43:25.485Z,88.81
2017-11-28T03:44:00.717Z,88.81
2017-11-28T03:44:36.008Z,88.72
2017-11-28T03:45:11.564Z,88.53
2017-11-28T03:45:46.772Z,88.62
2017-11-28T03:46:21.879Z,88.34
2017-11-28T03:46:57.201Z,88.62
2017-11-28T03:47:32.469Z,88.24
2017-11-28T03:48:07.659Z,88.24
2017-11-28T03:48:43.084Z,88.34
2017-11-28T03:49:18.281Z,88.81
2017-11-28T03:49:53.731Z,88.53
2017-11-28T03:50:29.029Z,88.43
2017-11-28T03:51:04.349Z,88.81
2017-11-28T03:51:39.969Z,88.43
2017-11-28T03:52:15.198Z,88.53
2017-11-28T03:52:50.586Z,88.53
2017-11-28T03:53:26.110Z,88.43
2017-11-28T03:54:01.702Z,88.24
2017-11-28T03:54:37.021Z,88.62
2017-11-28T03:55:12.414Z,88.34
2017-11-28T03:55:47.931Z,88.53
2017-11-28T03:56:23.327Z,88.62
2017-11-28T03:56:58.471Z,88.53
2017-11-28T03:57:33.895Z,88.72
2017-11-28T03:58:09.224Z,88.43
2017-11-28T03:58:44.422Z,88.72
2017-11-28T03:59:19.842Z,88.43
2017-11-28T03:59:55.131Z,88.62
2017-11-28T04:00:30.350Z,88.81
2017-11-28T04:01:05.640Z,88.72
2017-11-28T04:01:41.088Z,88.43
2017-11-28T04:02:16.277Z,88.43
2017-11-28T04:02:51.411Z,88.62
2017-11-28T04:03:26.702Z,88.72
2017-11-28T04:04:02.021Z,88.15
2017-11-28T04:04:37.417Z,88.34
2017-11-28T04:05:12.937Z,88.81
2017-11-28T04:05:48.229Z,88.72
2017-11-28T04:06:23.749Z,89.00
2017-11-28T04:06:59.166Z,88.62
2017-11-28T04:07:34.389Z,88.72
2017-11-28T04:08:09.872Z,88.53
2017-11-28T04:08:44.898Z,88.62
2017-11-28T04:09:20.287Z,88.62
2017-11-28T04:09:55.510Z,88.15
2017-11-28T04:10:30.593Z,88.53
2017-11-28T04:11:06.009Z,88.72
2017-11-28T04:11:41.536Z,88.81
2017-11-28T04:12:16.756Z,88.43
2017-11-28T04:12:52.647Z,88.34
2017-11-28T04:13:28.165Z,88.53
2017-11-28T04:14:03.058Z,88.06
2017-11-28T04:14:38.583Z,88.62
2017-11-28T04:15:13.970Z,88.34
2017-11-28T04:15:49.194Z,88.72
2017-11-28T04:16:24.681Z,88.06
2017-11-28T04:16:59.923Z,88.24
2017-11-28T04:17:35.216Z,88.72
2017-11-28T04:18:10.733Z,88.06
2017-11-28T04:18:46.123Z,88.53
2017-11-28T04:19:21.243Z,88.15
2017-11-28T04:19:56.334Z,88.53
2017-11-28T04:20:31.746Z,88.72
2017-11-28T04:21:07.235Z,88.62
2017-11-28T04:21:42.751Z,88.15
2017-11-28T04:22:17.966Z,88.43
2017-11-28T04:22:53.382Z,88.53
2017-11-28T04:23:28.879Z,88.53
2017-11-28T04:24:03.998Z,88.53
2017-11-28T04:24:39.487Z,88.43
2017-11-28T04:25:14.906Z,88.53
2017-11-28T04:25:50.417Z,88.43
2017-11-28T04:26:25.819Z,88.53
2017-11-28T04:27:01.331Z,88.43
2017-11-28T04:27:36.853Z,88.24
2017-11-28T04:28:12.157Z,88.53
2017-11-28T04:28:47.575Z,88.34
2017-11-28T04:29:22.768Z,88.53
2017-11-28T04:29:58.189Z,88.34
2017-11-28T04:30:33.380Z,88.62
2017-11-28T04:31:08.806Z,88.34
2017-11-28T04:31:44.292Z,88.72
2017-11-28T04:32:19.741Z,88.06
2017-11-28T04:32:54.929Z,88.24
2017-11-28T04:33:30.547Z,88.43
2017-11-28T04:34:05.839Z,88.62
2017-11-28T04:34:41.267Z,88.43
2017-11-28T04:35:16.546Z,88.72
2017-11-28T04:35:51.670Z,88.34
2017-11-28T04:36:27.264Z,88.43
2017-11-28T04:37:02.715Z,88.24
2017-11-28T04:37:37.919Z,88.43
2017-11-28T04:38:13.327Z,88.72
2017-11-28T04:38:48.416Z,88.53
2017-11-28T04:39:24.192Z,88.43
2017-11-28T04:39:59.583Z,88.62
2017-11-28T04:40:34.604Z,88.53
2017-11-28T04:41:09.625Z,88.24
2017-11-28T04:41:44.814Z,88.24
2017-11-28T04:42:19.925Z,88.81
2017-11-28T04:42:55.252Z,88.81
2017-11-28T04:43:30.641Z,88.53
2017-11-28T04:44:06.054Z,88.62
2017-11-28T04:44:41.347Z,88.72
2017-11-28T04:45:16.462Z,88.53
2017-11-28T04:45:51.859Z,88.62
2017-11-28T04:46:27.180Z,88.62
2017-11-28T04:47:02.961Z,88.34
2017-11-28T04:47:38.404Z,88.43
2017-11-28T04:48:13.694Z,88.62
2017-11-28T04:48:49.214Z,88.43
2017-11-28T04:49:24.610Z,88.24
2017-11-28T04:49:59.825Z,88.53
2017-11-28T04:50:34.912Z,88.53
2017-11-28T04:51:10.240Z,88.34
2017-11-28T04:51:45.433Z,88.53
2017-11-28T04:52:20.791Z,88.62
2017-11-28T04:52:56.379Z,88.24
2017-11-28T04:53:31.700Z,88.43
2017-11-28T04:54:06.909Z,88.53
2017-11-28T04:54:42.520Z,88.43
2017-11-28T04:55:18.008Z,88.06
2017-11-28T04:55:53.229Z,88.62
2017-11-28T04:56:28.435Z,88.43
2017-11-28T04:57:03.962Z,88.43
2017-11-28T04:57:39.077Z,88.06
2017-11-28T04:58:14.606Z,88.24
2017-11-28T04:58:49.792Z,87.68
2017-11-28T04:59:25.257Z,88.24
2017-11-28T05:00:00.369Z,87.77
2017-11-28T05:00:35.887Z,88.62
2017-11-28T05:01:11.185Z,88.34
2017-11-28T05:01:46.791Z,87.87
2017-11-28T05:02:21.916Z,88.53
2017-11-28T05:02:57.441Z,88.72
2017-11-28T05:03:32.835Z,88.34
2017-11-28T05:04:08.229Z,88.06
2017-11-28T05:04:43.680Z,88.24
2017-11-28T05:05:19.003Z,88.15
2017-11-28T05:05:54.289Z,88.24
2017-11-28T05:06:29.510Z,88.06
2017-11-28T05:07:04.803Z,88.62
2017-11-28T05:07:39.956Z,88.06
2017-11-28T05:08:15.543Z,88.53
2017-11-28T05:08:50.772Z,88.62
2017-11-28T05:09:26.510Z,88.43
2017-11-28T05:10:02.553Z,88.43
2017-11-28T05:10:38.058Z,88.81
2017-11-28T05:11:13.280Z,87.87
2017-11-28T05:11:48.609Z,88.43
2017-11-28T05:12:23.832Z,88.81
2017-11-28T05:12:59.118Z,88.72
2017-11-28T05:13:34.662Z,88.62
2017-11-28T05:14:10.248Z,88.24
2017-11-28T05:14:45.468Z,88.43
2017-11-28T05:15:20.857Z,88.43
2017-11-28T05:15:56.179Z,88.43
2017-11-28T05:16:31.769Z,88.34
2017-11-28T05:17:07.215Z,88.43
2017-11-28T05:17:42.439Z,88.24
2017-11-28T05:18:17.782Z,88.72
2017-11-28T05:18:52.919Z,88.43
2017-11-28T05:19:28.486Z,88.24
2017-11-28T05:20:03.778Z,88.43
2017-11-28T05:20:39.492Z,88.06
2017-11-28T05:21:14.506Z,88.62
2017-11-28T05:21:49.903Z,88.39
2017-11-28T05:22:25.315Z,88.58
2017-11-28T05:23:00.666Z,88.43
2017-11-28T05:23:35.854Z,88.24
2017-11-28T05:24:11.371Z,88.39
2017-11-28T05:24:46.567Z,88.48
2017-11-28T05:25:21.581Z,88.39
2017-11-28T05:25:58.670Z,88.39
2017-11-28T05:26:33.986Z,88.20
2017-11-28T05:27:09.512Z,88.10
2017-11-28T05:27:45.259Z,88.39
2017-11-28T05:28:20.549Z,88.39
2017-11-28T05:28:55.776Z,88.29
2017-11-28T05:29:30.886Z,88.68
2017-11-28T05:30:06.317Z,88.58
2017-11-28T05:30:42.524Z,88.39
2017-11-28T05:31:17.858Z,88.48
2017-11-28T05:31:53.394Z,88.48
2017-11-28T05:32:28.622Z,88.10
2017-11-28T05:33:04.029Z,87.92
2017-11-28T05:33:39.365Z,88.87
2017-11-28T05:34:14.656Z,88.58
2017-11-28T05:34:50.200Z,88.01
2017-11-28T05:35:25.495Z,88.58
2017-11-28T05:36:00.656Z,88.20
2017-11-28T05:36:35.744Z,88.29
2017-11-28T05:37:11.066Z,88.48
2017-11-28T05:37:46.277Z,88.68
2017-11-28T05:38:21.616Z,88.01
2017-11-28T05:38:56.899Z,88.01
2017-11-28T05:39:32.590Z,88.29
2017-11-28T05:40:07.883Z,87.82
2017-11-28T05:40:43.310Z,87.63
2017-11-28T05:41:18.716Z,88.01
2017-11-28T05:41:54.247Z,88.01
2017-11-28T05:42:29.776Z,88.20
2017-11-28T05:43:05.322Z,88.10
2017-11-28T05:43:40.432Z,88.01
2017-11-28T05:44:16.246Z,87.82
2017-11-28T05:44:51.643Z,87.82
2017-11-28T05:45:27.069Z,88.01
2017-11-28T05:46:02.254Z,88.39
2017-11-28T05:46:37.473Z,88.39
2017-11-28T05:47:12.662Z,88.01
2017-11-28T05:47:47.789Z,88.39
2017-11-28T05:48:23.200Z,88.58
2017-11-28T05:48:58.620Z,88.39
2017-11-28T05:49:33.718Z,88.68
2017-11-28T05:50:08.936Z,88.77
2017-11-28T05:50:44.339Z,88.10
2017-11-28T05:51:19.555Z,88.01
2017-11-28T05:51:54.647Z,88.29
2017-11-28T05:52:30.068Z,88.58
2017-11-28T05:53:05.183Z,88.01
2017-11-28T05:53:40.605Z,88.39
2017-11-28T05:54:15.895Z,88.39
2017-11-28T05:54:51.322Z,88.48
2017-11-28T05:55:26.711Z,88.20
2017-11-28T05:56:01.931Z,88.20
2017-11-28T05:56:37.125Z,88.20
2017-11-28T05:57:12.443Z,88.77
2017-11-28T05:57:47.443Z,88.48
2017-11-28T05:58:22.991Z,88.48
2017-11-28T05:58:58.283Z,88.34
2017-11-28T05:59:33.625Z,88.29
2017-11-28T06:00:08.885Z,88.72
2017-11-28T06:00:44.102Z,88.39
2017-11-28T06:01:19.317Z,88.53
2017-11-28T06:01:54.734Z,88.24
2017-11-28T06:02:29.921Z,88.72
2017-11-28T06:03:05.257Z,88.72
2017-11-28T06:03:40.642Z,89.00
2017-11-28T06:04:15.959Z,88.72
2017-11-28T06:04:51.051Z,88.06
2017-11-28T06:05:27.235Z,88.24
2017-11-28T06:06:02.627Z,88.24
2017-11-28T06:06:38.238Z,88.72
2017-11-28T06:07:13.539Z,88.72
2017-11-28T06:07:48.857Z,88.62
2017-11-28T06:08:24.170Z,88.34
2017-11-28T06:08:59.548Z,88.29
2017-11-28T06:09:35.098Z,88.72
2017-11-28T06:10:10.513Z,88.72
2017-11-28T06:10:45.804Z,88.48
2017-11-28T06:11:21.032Z,88.58
2017-11-28T06:11:56.734Z,88.68
2017-11-28T06:12:32.254Z,88.29
2017-11-28T06:13:07.568Z,88.20
2017-11-28T06:13:42.882Z,88.10
2017-11-28T06:14:18.173Z,88.10
2017-11-28T06:14:53.593Z,88.39
2017-11-28T06:15:29.592Z,88.39
2017-11-28T06:16:04.808Z,88.39
2017-11-28T06:16:40.195Z,88.58
2017-11-28T06:17:15.711Z,88.48
2017-11-28T06:17:51.197Z,88.48
2017-11-28T06:18:26.733Z,88.29
2017-11-28T06:19:01.725Z,88.68
2017-11-28T06:19:37.146Z,88.29
2017-11-28T06:20:12.629Z,88.48
2017-11-28T06:20:47.843Z,88.68
2017-11-28T06:21:23.020Z,88.48
2017-11-28T06:21:58.233Z,88.68
2017-11-28T06:22:33.520Z,88.39
2017-11-28T06:23:09.337Z,88.39
2017-11-28T06:23:44.650Z,88.48
2017-11-28T06:24:19.960Z,88.48
2017-11-28T06:24:55.452Z,88.48
2017-11-28T06:25:30.561Z,87.82
2017-11-28T06:26:05.950Z,88.39
2017-11-28T06:26:41.261Z,88.29
2017-11-28T06:27:16.743Z,88.10
2017-11-28T06:27:52.160Z,88.68
2017-11-28T06:28:27.468Z,88.96
2017-11-28T06:29:02.779Z,88.01
2017-11-28T06:29:37.858Z,88.10
2017-11-28T06:30:13.372Z,88.39
2017-11-28T06:30:48.661Z,88.20
2017-11-28T06:31:23.974Z,88.29
2017-11-28T06:31:59.363Z,88.58
2017-11-28T06:32:34.877Z,88.01
2017-11-28T06:33:10.160Z,88.39
2017-11-28T06:33:45.604Z,88.20
2017-11-28T06:34:21.099Z,88.68
2017-11-28T06:34:56.510Z,88.39
2017-11-28T06:35:31.694Z,88.72
2017-11-28T06:36:07.426Z,88.29
2017-11-28T06:36:42.706Z,88.39
2017-11-28T06:37:18.023Z,89.06
2017-11-28T06:37:53.247Z,89.06
2017-11-28T06:38:28.454Z,88.34
2017-11-28T06:39:04.041Z,88.68
2017-11-28T06:39:39.152Z,88.48
2017-11-28T06:40:14.540Z,88.77
2017-11-28T06:40:49.961Z,88.53
2017-11-28T06:41:25.241Z,88.29
2017-11-28T06:42:00.251Z,88.72
2017-11-28T06:42:35.833Z,88.72
2017-11-28T06:43:11.162Z,88.62
2017-11-28T06:43:46.583Z,89.00
2017-11-28T06:44:22.100Z,88.43
2017-11-28T06:44:57.417Z,88.72
2017-11-28T06:45:32.493Z,88.87
2017-11-28T06:46:07.680Z,88.87
2017-11-28T06:46:42.891Z,88.39
2017-11-28T06:47:18.171Z,88.20
2017-11-28T06:47:53.481Z,88.20
2017-11-28T06:48:28.884Z,88.58
2017-11-28T06:49:04.334Z,88.87
2017-11-28T06:49:39.918Z,88.20
2017-11-28T06:50:15.331Z,88.39
2017-11-28T06:50:50.611Z,89.15
2017-11-28T06:51:26.027Z,88.68
2017-11-28T06:52:01.897Z,88.58
2017-11-28T06:52:37.664Z,88.96
2017-11-28T06:53:13.259Z,88.39
2017-11-28T06:53:48.621Z,88.68
2017-11-28T06:54:23.797Z,88.68
2017-11-28T06:54:59.213Z,88.96
2017-11-28T06:55:34.690Z,88.77
2017-11-28T06:56:10.141Z,88.68
2017-11-28T06:56:45.633Z,88.48
2017-11-28T06:57:21.100Z,88.48
2017-11-28T06:57:56.482Z,88.68
2017-11-28T06:58:31.893Z,88.48
2017-11-28T06:59:07.506Z,88.39
2017-11-28T06:59:42.947Z,88.39
2017-11-28T07:00:18.231Z,88.68
2017-11-28T07:00:53.652Z,88.10
2017-11-28T07:01:29.233Z,88.39
2017-11-28T07:02:04.548Z,88.39
2017-11-28T07:02:39.739Z,88.77
2017-11-28T07:03:15.067Z,88.10
2017-11-28T07:03:50.459Z,88.68
2017-11-28T07:04:25.878Z,88.29
2017-11-28T07:05:01.168Z,88.58
2017-11-28T07:05:36.482Z,88.48
2017-11-28T07:06:11.869Z,88.68
2017-11-28T07:06:47.174Z,88.29
2017-11-28T07:07:22.573Z,89.25
2017-11-28T07:07:57.888Z,88.77
2017-11-28T07:08:32.872Z,88.62
2017-11-28T07:09:08.015Z,88.68
2017-11-28T07:09:43.303Z,88.77
2017-11-28T07:10:18.626Z,88.77
2017-11-28T07:10:53.905Z,88.77
2017-11-28T07:11:29.521Z,88.87
2017-11-28T07:12:04.610Z,88.87
2017-11-28T07:12:42.231Z,89.34
2017-11-28T07:13:17.419Z,89.06
2017-11-28T07:13:52.659Z,88.48
2017-11-28T07:14:27.853Z,88.48
2017-11-28T07:15:03.177Z,88.68
2017-11-28T07:15:38.542Z,88.29
2017-11-28T07:16:13.756Z,88.48
2017-11-28T07:16:48.944Z,88.77
2017-11-28T07:17:24.473Z,88.58
2017-11-28T07:17:59.759Z,88.48
2017-11-28T07:18:34.969Z,88.68
2017-11-28T07:19:10.186Z,89.06
2017-11-28T07:19:45.502Z,88.68
2017-11-28T07:20:20.977Z,88.58
2017-11-28T07:20:56.490Z,88.68
2017-11-28T07:21:31.676Z,88.29
2017-11-28T07:22:06.993Z,88.39
2017-11-28T07:22:42.682Z,88.96
2017-11-28T07:23:18.188Z,88.77
2017-11-28T07:23:53.552Z,88.48
2017-11-28T07:24:28.889Z,89.25
2017-11-28T07:25:04.097Z,88.77
2017-11-28T07:25:39.901Z,88.39
2017-11-28T07:26:15.185Z,88.39
2017-11-28T07:26:50.199Z,88.77
2017-11-28T07:27:25.874Z,88.48
2017-11-28T07:28:01.291Z,88.48
2017-11-28T07:28:36.579Z,89.34
2017-11-28T07:29:11.740Z,88.87
2017-11-28T07:29:47.032Z,88.68
2017-11-28T07:30:22.559Z,88.87
2017-11-28T07:30:57.859Z,88.96
2017-11-28T07:31:33.369Z,88.96
2017-11-28T07:32:08.749Z,88.77
2017-11-28T07:32:44.165Z,89.15
2017-11-28T07:33:19.450Z,89.34
2017-11-28T07:33:54.765Z,89.25
2017-11-28T07:34:29.972Z,88.48
2017-11-28T07:35:05.086Z,88.58
2017-11-28T07:35:40.378Z,88.58